Time;durP1;ratioP1;P1;durP2;ratioP2;P2;SDS_P1;SDS_P2;PMS_P1;PMS_P2;Temp;Humidity;BMP_temperature;BMP_pressure;BME280_temperature;BME280_humidity;BME280_pressure;Samples;Min_cycle;Max_cycle;Signal;HPM_P1;HPM_P2
2019/07/25 00:01:02;;;;;;;10.9;9.5;;;;;;;;;;;;;
2019/07/25 00:03:46;;;;;;;10.3;9.2;;;;;;;;;;;;;
2019/07/25 00:06:23;;;;;;;10.2;9.2;;;;;;;;;;;;;
2019/07/25 00:09:06;;;;;;;12.5;9.2;;;;;;;;;;;;;
2019/07/25 00:11:45;;;;;;;11.5;9.3;;;;;;;;;;;;;
2019/07/25 00:14:22;;;;;;;11.7;9.1;;;;;;;;;;;;;
2019/07/25 00:17:06;;;;;;;10.6;9.5;;;;;;;;;;;;;
2019/07/25 00:19:44;;;;;;;10.4;9.3;;;;;;;;;;;;;
2019/07/25 00:22:27;;;;;;;14;9.6;;;;;;;;;;;;;
2019/07/25 00:25:06;;;;;;;10.5;9.4;;;;;;;;;;;;;
2019/07/25 00:27:42;;;;;;;10.2;9.2;;;;;;;;;;;;;
2019/07/25 00:30:22;;;;;;;11.4;9.2;;;;;;;;;;;;;
2019/07/25 00:32:58;;;;;;;10.3;9.2;;;;;;;;;;;;;
2019/07/25 00:35:32;;;;;;;10.8;9.2;;;;;;;;;;;;;
2019/07/25 00:38:19;;;;;;;13.1;9.9;;;;;;;;;;;;;
2019/07/25 00:40:53;;;;;;;11.1;9.5;;;;;;;;;;;;;
2019/07/25 00:43:30;;;;;;;10.1;9.1;;;;;;;;;;;;;
2019/07/25 00:46:08;;;;;;;11.1;9.4;;;;;;;;;;;;;
2019/07/25 00:48:47;;;;;;;11.1;9.6;;;;;;;;;;;;;
2019/07/25 00:51:24;;;;;;;10.5;9;;;;;;;;;;;;;
2019/07/25 00:53:57;;;;;;;10.7;9.7;;;;;;;;;;;;;
2019/07/25 00:56:35;;;;;;;13.3;9.7;;;;;;;;;;;;;
2019/07/25 00:59:12;;;;;;;12.4;9.4;;;;;;;;;;;;;
2019/07/25 01:02:00;;;;;;;10.2;9.2;;;;;;;;;;;;;
2019/07/25 01:04:38;;;;;;;11.9;9.5;;;;;;;;;;;;;
2019/07/25 01:07:15;;;;;;;10.8;9.3;;;;;;;;;;;;;
2019/07/25 01:09:53;;;;;;;10.6;9.5;;;;;;;;;;;;;
2019/07/25 01:12:28;;;;;;;11.2;9.7;;;;;;;;;;;;;
2019/07/25 01:15:12;;;;;;;12.4;9.5;;;;;;;;;;;;;
2019/07/25 01:17:48;;;;;;;14.8;9.8;;;;;;;;;;;;;
2019/07/25 01:20:21;;;;;;;10.7;9.6;;;;;;;;;;;;;
2019/07/25 01:22:57;;;;;;;10.5;9.5;;;;;;;;;;;;;
2019/07/25 01:25:35;;;;;;;12.9;9.7;;;;;;;;;;;;;
2019/07/25 01:28:19;;;;;;;10.5;9.5;;;;;;;;;;;;;
2019/07/25 01:30:54;;;;;;;11;9.7;;;;;;;;;;;;;
2019/07/25 01:33:32;;;;;;;10.8;9.7;;;;;;;;;;;;;
2019/07/25 01:36:08;;;;;;;11.5;10.3;;;;;;;;;;;;;
2019/07/25 01:38:50;;;;;;;10.7;9.6;;;;;;;;;;;;;
2019/07/25 01:41:26;;;;;;;12.3;9.8;;;;;;;;;;;;;
2019/07/25 01:44:03;;;;;;;11.1;9.9;;;;;;;;;;;;;
2019/07/25 01:46:39;;;;;;;10.4;9.3;;;;;;;;;;;;;
2019/07/25 01:49:17;;;;;;;12.5;10.1;;;;;;;;;;;;;
2019/07/25 01:51:54;;;;;;;11.1;10;;;;;;;;;;;;;
2019/07/25 01:54:32;;;;;;;11.2;9.8;;;;;;;;;;;;;
2019/07/25 01:57:08;;;;;;;10.9;9.8;;;;;;;;;;;;;
2019/07/25 01:59:48;;;;;;;10.9;9.7;;;;;;;;;;;;;
2019/07/25 02:02:27;;;;;;;13.5;10.2;;;;;;;;;;;;;
2019/07/25 02:05:06;;;;;;;10.4;9.4;;;;;;;;;;;;;
2019/07/25 02:07:39;;;;;;;12.2;9.5;;;;;;;;;;;;;
2019/07/25 02:10:16;;;;;;;11.4;9.8;;;;;;;;;;;;;
2019/07/25 02:12:56;;;;;;;11.5;9.7;;;;;;;;;;;;;
2019/07/25 02:15:31;;;;;;;11.2;9.6;;;;;;;;;;;;;
2019/07/25 02:18:09;;;;;;;12.1;9.9;;;;;;;;;;;;;
2019/07/25 02:20:43;;;;;;;11.2;9.7;;;;;;;;;;;;;
2019/07/25 02:23:20;;;;;;;10.7;9.6;;;;;;;;;;;;;
2019/07/25 02:25:54;;;;;;;15.6;10;;;;;;;;;;;;;
2019/07/25 02:28:30;;;;;;;10.6;9.5;;;;;;;;;;;;;
2019/07/25 02:31:03;;;;;;;14.6;9.9;;;;;;;;;;;;;
2019/07/25 02:33:38;;;;;;;12;9.7;;;;;;;;;;;;;
2019/07/25 02:36:16;;;;;;;12.4;10;;;;;;;;;;;;;
2019/07/25 02:38:58;;;;;;;11.5;9.7;;;;;;;;;;;;;
2019/07/25 02:41:37;;;;;;;11.1;9.9;;;;;;;;;;;;;
2019/07/25 02:44:14;;;;;;;11.3;9.6;;;;;;;;;;;;;
2019/07/25 02:46:50;;;;;;;10.7;9.7;;;;;;;;;;;;;
2019/07/25 02:55:06;;;;;;;13.9;10;;;;;;;;;;;;;
2019/07/25 02:57:40;;;;;;;17.7;10.8;;;;;;;;;;;;;
2019/07/25 03:00:14;;;;;;;14.8;11.7;;;;;;;;;;;;;
2019/07/25 03:02:52;;;;;;;12.4;10.6;;;;;;;;;;;;;
2019/07/25 03:05:25;;;;;;;14.4;10.8;;;;;;;;;;;;;
2019/07/25 03:07:59;;;;;;;11.8;10.6;;;;;;;;;;;;;
2019/07/25 03:10:34;;;;;;;11.5;10.3;;;;;;;;;;;;;
2019/07/25 03:13:13;;;;;;;11.7;10.5;;;;;;;;;;;;;
2019/07/25 03:15:48;;;;;;;11.2;10.1;;;;;;;;;;;;;
2019/07/25 03:18:22;;;;;;;10.9;9.8;;;;;;;;;;;;;
2019/07/25 03:21:04;;;;;;;11.6;10.4;;;;;;;;;;;;;
2019/07/25 03:23:39;;;;;;;13.4;10.3;;;;;;;;;;;;;
2019/07/25 03:26:19;;;;;;;14.8;10.9;;;;;;;;;;;;;
2019/07/25 03:28:53;;;;;;;12;10.5;;;;;;;;;;;;;
2019/07/25 03:31:30;;;;;;;11.6;10.4;;;;;;;;;;;;;
2019/07/25 03:39:25;;;;;;;14;10.8;;;;;;;;;;;;;
2019/07/25 03:42:02;;;;;;;12;10.8;;;;;;;;;;;;;
2019/07/25 03:44:40;;;;;;;11.4;10.4;;;;;;;;;;;;;
2019/07/25 03:47:15;;;;;;;11.5;10.4;;;;;;;;;;;;;
2019/07/25 03:49:51;;;;;;;11.9;9.8;;;;;;;;;;;;;
2019/07/25 03:52:24;;;;;;;13.7;10.8;;;;;;;;;;;;;
2019/07/25 03:55:01;;;;;;;12.9;10.9;;;;;;;;;;;;;
2019/07/25 03:57:40;;;;;;;11.3;10.1;;;;;;;;;;;;;
2019/07/25 04:00:14;;;;;;;12.8;10.7;;;;;;;;;;;;;
2019/07/25 04:06:34;;;;;;;13.2;10.4;;;;;;;20.25;72.78613;940.6578;;;;
2019/07/25 04:09:52;;;;;;;11.5;10.3;;;;;;;20.09;73.46094;940.7509;;;;
2019/07/25 04:13:11;;;;;;;13.5;11;;;;;;;20.23;73.00488;940.7424;;;;
2019/07/25 04:16:32;;;;;;;12.9;10.4;;;;;;;20.33;72.66309;940.7972;;;;
2019/07/25 04:19:56;;;;;;;13.8;11;;;;;;;20.4;72.60156;940.8063;;;;
2019/07/25 04:23:12;;;;;;;12.9;10.3;;;;;;;20.31;72.93848;940.8519;;;;
2019/07/25 04:26:31;;;;;;;11.5;10.1;;;;;;;20.37;73.00586;940.853;;;;
2019/07/25 04:29:46;;;;;;;12.6;10.4;;;;;;;20.29;72.85254;940.8251;;;;
2019/07/25 04:33:05;;;;;;;19;10.9;;;;;;;20.37;72.92383;940.8271;;;;
2019/07/25 04:36:21;;;;;;;14.1;10.7;;;;;;;20.27;72.89746;940.8699;;;;
2019/07/25 04:39:38;;;;;;;14.3;10.6;;;;;;;20.31;72.6582;940.8301;;;;
2019/07/25 04:42:53;;;;;;;14;10.9;;;;;;;20.37;72.81934;940.7883;;;;
2019/07/25 04:46:18;;;;;;;11.5;10.3;;;;;;;20.61;71.88965;940.8824;;;;
2019/07/25 04:49:43;;;;;;;12.3;10.7;;;;;;;20.5;72.2793;940.8456;;;;
2019/07/25 04:53:01;;;;;;;14.3;10.7;;;;;;;20.41;72.71973;940.8444;;;;
2019/07/25 04:56:17;;;;;;;15.4;11.1;;;;;;;20.58;72.33887;940.8566;;;;
2019/07/25 04:59:33;;;;;;;12.8;10.5;;;;;;;20.47;72.41504;940.8187;;;;
2019/07/25 05:02:53;;;;;;;11.6;10.4;;;;;;;20.51;72.18848;940.8177;;;;
2019/07/25 05:06:12;;;;;;;11.9;10.6;;;;;;;20.58;72.17578;940.8566;;;;
2019/07/25 05:09:33;;;;;;;17.5;10.6;;;;;;;20.76;71.64551;940.8328;;;;
2019/07/25 05:12:57;;;;;;;14.2;10.9;;;;;;;20.86;71.27539;940.6038;;;;
2019/07/25 05:16:13;;;;;;;12;9.9;;;;;;;21.04;70.80078;940.7971;;;;
2019/07/25 05:19:26;;;;;;;12.7;10.5;;;;;;;21.05;70.8252;940.8;;;;
2019/07/25 05:22:46;;;;;;;17;11.3;;;;;;;21.32;69.89746;940.743;;;;
2019/07/25 05:26:04;;;;;;;13.6;9.9;;;;;;;22.67;65.46289;940.7629;;;;
2019/07/25 05:29:21;;;;;;;20.9;9.9;;;;;;;24.18;60.27832;940.698;;;;
2019/07/25 05:32:37;;;;;;;26.2;10.9;;;;;;;25.5;56.02734;940.7352;;;;
2019/07/25 05:35:57;;;;;;;13.9;9;;;;;;;26.29;53.5957;940.7447;;;;
2019/07/25 05:39:29;;;;;;;15.7;8.5;;;;;;;26.33;51.88379;940.7558;;;;
2019/07/25 05:42:46;;;;;;;12.4;8.6;;;;;;;27.19;50.2627;940.6983;;;;
2019/07/25 05:46:00;;;;;;;12.8;8.8;;;;;;;27.78;48.9873;940.6699;;;;
2019/07/25 05:49:20;;;;;;;15.3;8.7;;;;;;;28.44;47.27539;940.7;;;;
2019/07/25 05:52:39;;;;;;;14.8;9.1;;;;;;;27.88;48.16699;940.6281;;;;
2019/07/25 05:55:52;;;;;;;14;9;;;;;;;27.22;50.18359;940.5705;;;;
2019/07/25 05:59:06;;;;;;;11.7;8.6;;;;;;;28.42;47.05957;940.6458;;;;
2019/07/25 06:02:20;;;;;;;15.9;9.2;;;;;;;28.74;46.41504;940.5767;;;;
2019/07/25 06:05:37;;;;;;;17.6;9.6;;;;;;;28.91;45.83691;940.5574;;;;
2019/07/25 06:08:53;;;;;;;13.8;8.7;;;;;;;29.99;44.96875;940.5215;;;;
2019/07/25 06:12:14;;;;;;;11.8;7.7;;;;;;;31.1;41.20313;940.509;;;;
2019/07/25 06:15:33;;;;;;;12.2;7.7;;;;;;;31.66;40.2959;940.5478;;;;
2019/07/25 06:19:00;;;;;;;13.2;7.8;;;;;;;32.32;38.82031;940.5627;;;;
2019/07/25 06:22:15;;;;;;;9.8;7.3;;;;;;;32.24;38.3457;940.5853;;;;
2019/07/25 06:25:31;;;;;;;9.3;7.3;;;;;;;31.92;38.65527;940.5142;;;;
2019/07/25 06:28:49;;;;;;;9.6;6.9;;;;;;;30.57;41.59863;940.5153;;;;
2019/07/25 06:32:03;;;;;;;7.1;6.4;;;;;;;32.08;38.17676;940.5043;;;;
2019/07/25 06:35:18;;;;;;;8.3;6.9;;;;;;;32.17;37.64453;940.4786;;;;
2019/07/25 06:38:33;;;;;;;9.6;6.7;;;;;;;33.32;37.10352;940.4525;;;;
2019/07/25 06:41:50;;;;;;;8.6;6.5;;;;;;;34.26;34.90332;940.4551;;;;
2019/07/25 06:45:09;;;;;;;9.4;6.4;;;;;;;35.64;33.99414;940.4324;;;;
2019/07/25 06:48:33;;;;;;;7;6.3;;;;;;;35.28;34.51074;940.3776;;;;
2019/07/25 06:51:49;;;;;;;10.5;6.3;;;;;;;35.78;31.24902;940.4453;;;;
2019/07/25 06:55:03;;;;;;;9.6;6.4;;;;;;;36.24;31.95801;940.4573;;;;
2019/07/25 06:58:19;;;;;;;9.8;6;;;;;;;35.42;34.25586;940.4122;;;;
2019/07/25 07:01:37;;;;;;;10.1;6.2;;;;;;;36.35;34.21582;940.397;;;;
2019/07/25 07:04:53;;;;;;;10.5;6.2;;;;;;;36;33.35547;940.3192;;;;
2019/07/25 07:08:09;;;;;;;10.6;6.3;;;;;;;37.62;30.57422;940.3133;;;;
2019/07/25 07:11:28;;;;;;;10.6;5.9;;;;;;;36.66;32.22949;940.3013;;;;
2019/07/25 07:14:43;;;;;;;10.9;6.1;;;;;;;38.34;30.08691;940.2522;;;;
2019/07/25 07:17:59;;;;;;;11.3;6;;;;;;;38.91;29.32129;940.2068;;;;
2019/07/25 07:21:24;;;;;;;25;6.6;;;;;;;38.74;30.07617;940.2015;;;;
2019/07/25 07:24:45;;;;;;;11.8;6.2;;;;;;;38.68;29.92676;940.1436;;;;
2019/07/25 07:28:00;;;;;;;9.6;6.2;;;;;;;39.09;29.77148;940.1903;;;;
2019/07/25 07:31:18;;;;;;;7.6;5.9;;;;;;;39.27;26.87207;940.0832;;;;
2019/07/25 07:34:37;;;;;;;6.7;5.6;;;;;;;38.95;27.35254;940.1267;;;;
2019/07/25 07:37:57;;;;;;;8.8;5.9;;;;;;;40.52;27.95898;940.1342;;;;
2019/07/25 07:41:17;;;;;;;8.3;6;;;;;;;39.06;26.7998;940.0325;;;;
2019/07/25 07:44:31;;;;;;;6.7;6;;;;;;;37.62;28.62012;940.034;;;;
2019/07/25 07:47:49;;;;;;;8.7;6.3;;;;;;;38.05;29.92285;939.9345;;;;
2019/07/25 07:51:07;;;;;;;7.6;5.9;;;;;;;38.11;28.18945;939.8781;;;;
2019/07/25 07:54:22;;;;;;;8.6;6.4;;;;;;;38.83;27.84473;939.8549;;;;
2019/07/25 07:57:40;;;;;;;7.6;6.1;;;;;;;38.78;29.28906;939.8511;;;;
2019/07/25 08:00:52;;;;;;;7.8;5.6;;;;;;;38.52;27.93555;939.8073;;;;
2019/07/25 08:04:08;;;;;;;6.2;5.6;;;;;;;38.84;29.91309;939.8289;;;;
2019/07/25 08:07:26;;;;;;;7.2;5.9;;;;;;;40.23;26.26953;939.8234;;;;
2019/07/25 08:10:42;;;;;;;7;5.8;;;;;;;41.03;24.29883;939.7623;;;;
2019/07/25 08:14:00;;;;;;;7.9;5.9;;;;;;;39.35;26.0127;939.7094;;;;
2019/07/25 08:17:21;;;;;;;8.4;6.2;;;;;;;39.64;27.11426;939.6752;;;;
2019/07/25 08:20:38;;;;;;;9.1;5.9;;;;;;;40.64;26.11035;939.7125;;;;
2019/07/25 08:24:00;;;;;;;10.7;6;;;;;;;41.35;25.48926;939.653;;;;
2019/07/25 08:27:16;;;;;;;9.3;6;;;;;;;41.72;26.83105;939.6266;;;;
2019/07/25 08:30:41;;;;;;;6.5;5.6;;;;;;;41.25;25.65527;939.692;;;;
2019/07/25 08:34:05;;;;;;;7.5;5.2;;;;;;;40.83;23.98242;939.6277;;;;
2019/07/25 08:37:27;;;;;;;7;5.2;;;;;;;41.66;24.17285;939.5597;;;;
2019/07/25 08:40:48;;;;;;;7.1;5.4;;;;;;;39.99;26.97559;939.58;;;;
2019/07/25 08:44:05;;;;;;;7.7;5.3;;;;;;;41.45;23.7207;939.4614;;;;
2019/07/25 08:47:21;;;;;;;7.5;5.5;;;;;;;41.57;23.9834;939.4628;;;;
2019/07/25 08:50:42;;;;;;;7.9;5.6;;;;;;;40.17;26.36328;939.3958;;;;
2019/07/25 08:53:57;;;;;;;10.5;5.7;;;;;;;41.11;26.17285;939.3983;;;;
2019/07/25 08:57:12;;;;;;;7.6;5.3;;;;;;;40.79;26.13086;939.3511;;;;
2019/07/25 09:00:33;;;;;;;8.1;5;;;;;;;41.32;26.47852;939.3464;;;;
2019/07/25 09:03:56;;;;;;;8;5.1;;;;;;;41.01;23.56445;939.3128;;;;
2019/07/25 09:07:12;;;;;;;8.9;5.4;;;;;;;40.25;29.08887;939.2403;;;;
2019/07/25 09:10:30;;;;;;;10.5;5.3;;;;;;;40.07;28.18848;939.2153;;;;
2019/07/25 09:13:49;;;;;;;9.2;5.2;;;;;;;38.92;30.92773;939.2496;;;;
2019/07/25 09:17:11;;;;;;;8.4;5.2;;;;;;;39.03;28.57422;939.1378;;;;
2019/07/25 09:20:30;;;;;;;6.6;5.2;;;;;;;39.04;29.63379;939.1079;;;;
2019/07/25 09:23:46;;;;;;;7.6;5;;;;;;;38.6;31.40527;939.04;;;;
2019/07/25 09:27:13;;;;;;;10.6;5.5;;;;;;;39.01;29.57129;939.0477;;;;
2019/07/25 09:30:32;;;;;;;7.3;5.3;;;;;;;38.52;32.39746;939.0027;;;;
2019/07/25 09:34:01;;;;;;;9.3;5.9;;;;;;;38.25;31.21094;939.0158;;;;
2019/07/25 09:37:19;;;;;;;10.8;5.6;;;;;;;38.15;31.82422;938.9636;;;;
2019/07/25 09:40:35;;;;;;;8.2;5.6;;;;;;;38.15;31.3623;939.0223;;;;
2019/07/25 09:43:51;;;;;;;10.2;5.7;;;;;;;37.85;31.53711;938.9716;;;;
2019/07/25 09:47:11;;;;;;;9.8;5.5;;;;;;;37.79;31.61719;938.9722;;;;
2019/07/25 09:50:25;;;;;;;10.2;5.6;;;;;;;37.45;31.75195;938.9833;;;;
2019/07/25 09:53:54;;;;;;;8.6;5.8;;;;;;;37.41;31.65137;938.9509;;;;
2019/07/25 09:57:13;;;;;;;7.5;5.9;;;;;;;37.12;32.91699;938.9334;;;;
2019/07/25 10:00:32;;;;;;;13;6;;;;;;;37.06;33.13086;938.9231;;;;
2019/07/25 10:04:06;;;;;;;9.6;5.9;;;;;;;36.81;31.5498;938.9601;;;;
2019/07/25 10:07:35;;;;;;;9.1;5.8;;;;;;;37.13;32.6377;938.8482;;;;
2019/07/25 10:10:52;;;;;;;10.5;5.7;;;;;;;37.19;32.89746;938.8795;;;;
2019/07/25 10:14:08;;;;;;;7.6;5.3;;;;;;;37.41;32.52441;938.7913;;;;
2019/07/25 10:17:30;;;;;;;10;5.7;;;;;;;37.5;31.52441;938.8033;;;;
2019/07/25 10:20:51;;;;;;;6.8;5.7;;;;;;;37.77;32.125;938.7397;;;;
2019/07/25 10:24:07;;;;;;;8.1;5.4;;;;;;;37.81;30.96289;938.7756;;;;
2019/07/25 10:27:29;;;;;;;8.3;5.8;;;;;;;37.69;32.30273;938.8177;;;;
2019/07/25 10:30:43;;;;;;;10.5;6.4;;;;;;;37.87;32.64258;938.7385;;;;
2019/07/25 10:33:59;;;;;;;13.5;5.8;;;;;;;37.93;30.93457;938.7164;;;;
2019/07/25 10:37:14;;;;;;;9.5;5.7;;;;;;;38.05;31.51367;938.7086;;;;
2019/07/25 10:40:35;;;;;;;9.3;5.2;;;;;;;38.36;31.21875;938.6951;;;;
2019/07/25 10:43:53;;;;;;;9.7;5.6;;;;;;;38.46;31.2627;938.6066;;;;
2019/07/25 10:47:08;;;;;;;17.1;6.1;;;;;;;38.44;31.94141;938.6205;;;;
2019/07/25 10:50:31;;;;;;;9.8;5.9;;;;;;;38.71;31.7041;938.5825;;;;
2019/07/25 10:53:45;;;;;;;15.6;6;;;;;;;38.86;29.76855;938.528;;;;
2019/07/25 10:57:02;;;;;;;10.6;5.5;;;;;;;38.95;30.48047;938.5236;;;;
2019/07/25 11:00:19;;;;;;;9.7;5.1;;;;;;;38.91;29.58984;938.4995;;;;
2019/07/25 11:04:12;;;;;;;8.6;5.6;;;;;;;38.94;29.43262;938.4451;;;;
2019/07/25 11:07:30;;;;;;;7.1;5;;;;;;;39.11;30.07715;938.4581;;;;
2019/07/25 11:10:43;;;;;;;7;5.4;;;;;;;39.48;28.79785;938.3884;;;;
2019/07/25 11:13:59;;;;;;;9;5;;;;;;;39.71;26.8125;938.4083;;;;
2019/07/25 11:17:22;;;;;;;7.4;5;;;;;;;39.6;28.8291;938.3776;;;;
2019/07/25 11:20:40;;;;;;;8.2;4.8;;;;;;;39.45;27.9668;938.3644;;;;
2019/07/25 11:23:55;;;;;;;6.9;4.6;;;;;;;39.33;28.41016;938.3463;;;;
2019/07/25 11:27:18;;;;;;;5.5;4.7;;;;;;;38.8;28.06152;938.2662;;;;
2019/07/25 11:30:37;;;;;;;10.4;4.8;;;;;;;38.4;30.26172;938.1851;;;;
2019/07/25 11:39:52;;;;;;;7.9;5.1;;;;;;;37.75;31.05566;938.0754;;;;
2019/07/25 11:43:17;;;;;;;7.6;4.9;;;;;;;37.45;30.00488;938.0565;;;;
2019/07/25 11:46:37;;;;;;;8.2;5;;;;;;;37.28;30.79395;938.0812;;;;
2019/07/25 11:49:54;;;;;;;9.8;5.3;;;;;;;37.19;31.7334;938.0158;;;;
2019/07/25 11:53:16;;;;;;;8.4;5.4;;;;;;;37.1;32.9873;937.9906;;;;
2019/07/25 11:56:36;;;;;;;7.3;4.6;;;;;;;37.02;31.95215;937.9528;;;;
2019/07/25 11:59:50;;;;;;;5.8;5.2;;;;;;;37.15;32.00977;937.8906;;;;
2019/07/25 12:03:13;;;;;;;8.6;5.4;;;;;;;36.95;33.72754;937.8207;;;;
2019/07/25 12:06:38;;;;;;;7.5;5;;;;;;;37.01;33.76855;937.8137;;;;
2019/07/25 12:09:57;;;;;;;9.1;5;;;;;;;36.98;31.83984;937.78;;;;
2019/07/25 12:13:28;;;;;;;8.6;5;;;;;;;36.96;31.20898;937.7206;;;;
2019/07/25 12:16:53;;;;;;;6.1;4.5;;;;;;;37.08;32.17383;937.6937;;;;
2019/07/25 12:20:09;;;;;;;8.3;4.4;;;;;;;37.02;31.16504;937.7308;;;;
2019/07/25 12:23:29;;;;;;;18.1;4.8;;;;;;;37.03;31.8916;937.7028;;;;
2019/07/25 12:26:54;;;;;;;7.1;4.5;;;;;;;37.17;30.25391;937.7414;;;;
2019/07/25 12:30:15;;;;;;;6.9;4.3;;;;;;;37.4;30.25586;937.6816;;;;
2019/07/25 12:33:54;;;;;;;8.1;4;;;;;;;37.47;30.21289;937.7194;;;;
2019/07/25 12:37:08;;;;;;;8.2;4.3;;;;;;;37.49;30.01953;937.627;;;;
2019/07/25 12:40:34;;;;;;;6.8;4.1;;;;;;;37.7;30.36035;937.7443;;;;
2019/07/25 12:43:54;;;;;;;6.9;4.2;;;;;;;37.48;29.41211;937.6967;;;;
2019/07/25 12:47:15;;;;;;;8.6;4.1;;;;;;;37.51;29.51172;937.6567;;;;
2019/07/25 12:50:41;;;;;;;7.9;3.8;;;;;;;37.42;30.7793;937.6105;;;;
2019/07/25 12:53:57;;;;;;;9.6;4.1;;;;;;;37.16;30.61621;937.6577;;;;
2019/07/25 12:57:14;;;;;;;10.6;4.1;;;;;;;36.97;30.67676;937.5464;;;;
2019/07/25 13:00:33;;;;;;;8.1;4.5;;;;;;;36.69;32.3291;937.5846;;;;
2019/07/25 13:04:06;;;;;;;5.8;3.9;;;;;;;36.76;30.22656;937.5535;;;;
2019/07/25 13:07:24;;;;;;;9;4;;;;;;;36.93;30.38184;937.5027;;;;
2019/07/25 13:10:42;;;;;;;7.8;4.2;;;;;;;36.86;29.25195;937.5377;;;;
2019/07/25 13:13:58;;;;;;;8.5;4.2;;;;;;;37.04;29.16602;937.462;;;;
2019/07/25 13:17:12;;;;;;;10.6;4;;;;;;;36.82;30.78711;937.4842;;;;
2019/07/25 13:20:30;;;;;;;9.2;4.1;;;;;;;36.39;32.6582;937.4561;;;;
2019/07/25 13:23:48;;;;;;;6.9;4;;;;;;;36.4;30.39648;937.4529;;;;
2019/07/25 13:27:04;;;;;;;8.9;3.8;;;;;;;36.59;32.38184;937.3842;;;;
2019/07/25 13:30:26;;;;;;;8;3.5;;;;;;;36.74;31.5459;937.3628;;;;
2019/07/25 13:33:50;;;;;;;9;3.8;;;;;;;36.54;32.08789;937.2966;;;;
2019/07/25 13:37:08;;;;;;;11;4.2;;;;;;;36.59;31.54688;937.3444;;;;
2019/07/25 13:40:28;;;;;;;6;4;;;;;;;36.43;31.71777;937.2531;;;;
2019/07/25 13:43:58;;;;;;;7.5;3.8;;;;;;;36.58;31.0625;937.3194;;;;
2019/07/25 13:47:15;;;;;;;7.4;4.1;;;;;;;36.53;30.28418;937.245;;;;
2019/07/25 13:50:33;;;;;;;8.5;3.7;;;;;;;36.54;31.62793;937.2489;;;;
2019/07/25 13:53:48;;;;;;;6.6;3.7;;;;;;;36.53;31.82129;937.277;;;;
2019/07/25 13:57:06;;;;;;;7;3.9;;;;;;;36.46;30.89648;937.2567;;;;
2019/07/25 14:00:20;;;;;;;8.2;4;;;;;;;36.09;31.79004;937.2329;;;;
2019/07/25 14:03:48;;;;;;;7.5;3.9;;;;;;;35.98;31.6377;937.2236;;;;
2019/07/25 14:07:14;;;;;;;6.2;4.1;;;;;;;35.9;31.2207;937.2084;;;;
2019/07/25 14:10:31;;;;;;;6.2;4.3;;;;;;;36.09;31.5;937.2142;;;;
2019/07/25 14:13:52;;;;;;;6;4.1;;;;;;;36.02;32.69238;937.2558;;;;
2019/07/25 14:17:15;;;;;;;9.6;4.1;;;;;;;35.89;31.30469;937.1133;;;;
2019/07/25 14:20:43;;;;;;;5.2;4.1;;;;;;;35.83;32.30371;937.1994;;;;
2019/07/25 14:24:06;;;;;;;9.2;4.4;;;;;;;35.8;32.19336;937.1973;;;;
2019/07/25 14:27:23;;;;;;;5.6;3.9;;;;;;;35.68;32.63086;937.2614;;;;
2019/07/25 14:30:38;;;;;;;10.1;4.3;;;;;;;35.59;32.84277;937.1852;;;;
2019/07/25 14:33:55;;;;;;;10.9;4.5;;;;;;;35.6;34.1123;937.1969;;;;
2019/07/25 14:37:10;;;;;;;8;4.1;;;;;;;35.87;33.10449;937.1959;;;;
2019/07/25 14:40:30;;;;;;;8.5;4.3;;;;;;;35.92;32.83008;937.1337;;;;
2019/07/25 14:43:46;;;;;;;7.2;4.3;;;;;;;35.75;31.93652;937.0341;;;;
2019/07/25 14:47:00;;;;;;;8;4.2;;;;;;;35.68;34.11719;937.1024;;;;
2019/07/25 14:50:17;;;;;;;8.5;4.2;;;;;;;34.98;33.5957;937.2252;;;;
2019/07/25 14:53:50;;;;;;;5.7;4.2;;;;;;;34.75;33.9043;937.1806;;;;
2019/07/25 14:57:07;;;;;;;10.9;4.6;;;;;;;34.55;34.22656;937.1622;;;;
2019/07/25 15:00:21;;;;;;;7.6;4.5;;;;;;;34.33;35.06543;937.1874;;;;
2019/07/25 15:03:56;;;;;;;7;4.5;;;;;;;34.05;34.85059;937.153;;;;
2019/07/25 15:07:13;;;;;;;9.1;4.8;;;;;;;34.02;37.73828;937.1983;;;;
2019/07/25 15:10:29;;;;;;;13.4;4.6;;;;;;;33.95;36.11914;937.2869;;;;
2019/07/25 15:13:51;;;;;;;7.3;4.8;;;;;;;34.01;36.48535;937.2183;;;;
2019/07/25 15:17:09;;;;;;;7.2;4.3;;;;;;;34.2;35.13965;937.3538;;;;
2019/07/25 15:20:25;;;;;;;8.6;4.7;;;;;;;34.55;34.74512;937.3872;;;;
2019/07/25 15:23:43;;;;;;;9;4.8;;;;;;;34.87;36.49316;937.3176;;;;
2019/07/25 15:27:02;;;;;;;8.4;4.5;;;;;;;35.06;34.15625;937.3826;;;;
2019/07/25 15:30:18;;;;;;;7.1;4.3;;;;;;;35.15;34.95996;937.3062;;;;
2019/07/25 15:33:41;;;;;;;9.7;4.4;;;;;;;35.31;34.36719;937.1969;;;;
2019/07/25 15:36:55;;;;;;;12.9;4.8;;;;;;;35.41;35.2207;937.1947;;;;
2019/07/25 15:40:12;;;;;;;10.6;4.4;;;;;;;35.26;34.96777;937.2059;;;;
2019/07/25 15:43:31;;;;;;;9.1;4.6;;;;;;;35.04;34.75781;937.0861;;;;
2019/07/25 15:46:47;;;;;;;7.9;4.9;;;;;;;35;35.12891;937.0313;;;;
2019/07/25 15:50:10;;;;;;;8;4.7;;;;;;;34.77;35.12305;936.9261;;;;
2019/07/25 15:53:29;;;;;;;7.6;4.7;;;;;;;34.7;35.05762;936.843;;;;
2019/07/25 15:56:44;;;;;;;9.1;4.9;;;;;;;34.37;35.17676;936.8574;;;;
2019/07/25 15:59:57;;;;;;;9.4;4.9;;;;;;;34.13;35.49414;936.8605;;;;
2019/07/25 16:03:15;;;;;;;7.7;4.7;;;;;;;34.05;36.19922;936.9586;;;;
2019/07/25 16:06:30;;;;;;;9.5;4.8;;;;;;;33.94;36.16699;937.0411;;;;
2019/07/25 16:09:45;;;;;;;8.8;4.7;;;;;;;34.09;35.74512;937.1364;;;;
2019/07/25 16:13:04;;;;;;;7.5;4.9;;;;;;;34.26;37.32422;937.1914;;;;
2019/07/25 16:16:27;;;;;;;6;4.9;;;;;;;34.03;36.57129;937.0631;;;;
2019/07/25 16:19:43;;;;;;;6.1;4.8;;;;;;;33.81;37.84082;936.9689;;;;
2019/07/25 16:23:02;;;;;;;9.8;4.9;;;;;;;33.44;37.11328;936.8986;;;;
2019/07/25 16:26:23;;;;;;;9.3;4.7;;;;;;;33.13;37.7002;936.9821;;;;
2019/07/25 16:29:58;;;;;;;9.7;4.9;;;;;;;33.09;37.64844;937.0661;;;;
2019/07/25 16:33:31;;;;;;;8.8;5;;;;;;;33.01;37.22168;937.3217;;;;
2019/07/25 16:36:57;;;;;;;10.5;5;;;;;;;32.81;37.61328;937.3205;;;;
2019/07/25 16:40:13;;;;;;;9.7;5.1;;;;;;;32.72;37.79785;937.1564;;;;
2019/07/25 16:43:37;;;;;;;9.6;4.9;;;;;;;32.63;37.89844;937.1997;;;;
2019/07/25 16:47:01;;;;;;;9.5;4.9;;;;;;;32.62;38.23438;937.1219;;;;
2019/07/25 16:50:18;;;;;;;7.1;4.8;;;;;;;32.45;38.52051;937.1175;;;;
2019/07/25 16:53:36;;;;;;;9.4;4.8;;;;;;;32.4;38.64746;937.1008;;;;
2019/07/25 16:56:56;;;;;;;9.7;4.7;;;;;;;32.21;38.5957;937.1487;;;;
2019/07/25 17:00:14;;;;;;;7.4;4.7;;;;;;;32.25;38.38184;937.1117;;;;
2019/07/25 17:03:07;;;;;;;6.8;4.6;;;;;;;32.12;38.50391;937.1432;;;;
2019/07/25 17:06:24;;;;;;;9;4.7;;;;;;;32.07;38.43945;937.1174;;;;
2019/07/25 17:09:49;;;;;;;7;4.6;;;;;;;32.01;39.28516;937.2695;;;;
2019/07/25 17:13:02;;;;;;;10.5;5;;;;;;;32;38.70996;937.3934;;;;
2019/07/25 17:16:21;;;;;;;7.9;4.8;;;;;;;31.87;40.01563;937.5411;;;;
2019/07/25 17:19:40;;;;;;;8.3;4.6;;;;;;;31.66;41.1709;937.5689;;;;
2019/07/25 17:22:59;;;;;;;7.4;4.9;;;;;;;31.63;40.7373;937.5966;;;;
2019/07/25 17:26:13;;;;;;;6.9;4.8;;;;;;;31.69;40.43164;937.5818;;;;
2019/07/25 17:29:31;;;;;;;6.5;4.7;;;;;;;31.67;41.56738;937.5767;;;;
2019/07/25 17:32:50;;;;;;;6.7;5.1;;;;;;;31.54;42.96777;937.5341;;;;
2019/07/25 17:36:04;;;;;;;7.3;5.3;;;;;;;31.42;42.40625;937.5375;;;;
2019/07/25 17:39:21;;;;;;;10.3;5.4;;;;;;;31.07;44.49023;937.5344;;;;
2019/07/25 17:42:38;;;;;;;14.4;5.8;;;;;;;30.88;45.45215;937.48;;;;
2019/07/25 17:46:02;;;;;;;10.3;5.3;;;;;;;30.78;46.50586;937.454;;;;
2019/07/25 17:49:20;;;;;;;9.9;5.6;;;;;;;30.55;48.04688;937.4639;;;;
2019/07/25 17:52:37;;;;;;;7.9;5.9;;;;;;;30.44;46.84082;937.5145;;;;
2019/07/25 17:55:56;;;;;;;19.5;9.9;;;;;;;30.45;45.89844;937.5209;;;;
2019/07/25 17:59:11;;;;;;;15.5;7.6;;;;;;;30.4;46.91992;937.4775;;;;
2019/07/25 18:02:30;;;;;;;13.8;6.5;;;;;;;30.31;47.48438;937.3872;;;;
2019/07/25 18:05:48;;;;;;;8.3;5.5;;;;;;;30.29;46.02539;937.4398;;;;
2019/07/25 18:09:07;;;;;;;10.2;6;;;;;;;30.26;47.25195;937.365;;;;
2019/07/25 18:12:24;;;;;;;10.4;6.2;;;;;;;30.25;46.51074;937.2139;;;;
2019/07/25 18:15:39;;;;;;;9.2;5.6;;;;;;;30.19;46.69434;937.2034;;;;
2019/07/25 18:18:57;;;;;;;7.8;5.5;;;;;;;30.16;46.9082;937.1641;;;;
2019/07/25 18:22:20;;;;;;;8.8;6.1;;;;;;;30.09;47.37793;937.1288;;;;
2019/07/25 18:25:35;;;;;;;20.7;6.7;;;;;;;29.85;49.11719;937.0212;;;;
2019/07/25 18:28:54;;;;;;;33.6;6.9;;;;;;;29.62;50.02148;937.0607;;;;
2019/07/25 18:32:07;;;;;;;10.6;6.3;;;;;;;29.59;49.60254;937.0739;;;;
2019/07/25 18:35:23;;;;;;;7.9;6.1;;;;;;;29.54;49.13184;937.166;;;;
2019/07/25 18:38:39;;;;;;;9;6.2;;;;;;;29.52;48.21191;937.2263;;;;
2019/07/25 18:41:57;;;;;;;11.1;6.1;;;;;;;29.49;50.68848;937.2093;;;;
2019/07/25 18:45:21;;;;;;;9.4;6;;;;;;;29.41;50.20117;937.1839;;;;
2019/07/25 18:48:38;;;;;;;10.9;6;;;;;;;29.25;49.45801;937.2023;;;;
2019/07/25 18:51:54;;;;;;;8.9;5.3;;;;;;;29.16;49.5791;937.0511;;;;
2019/07/25 18:55:09;;;;;;;9.5;5.6;;;;;;;29.19;49.22363;937.0209;;;;
2019/07/25 18:58:31;;;;;;;7.7;5.8;;;;;;;28.96;49.37695;937.0338;;;;
2019/07/25 19:01:49;;;;;;;7.2;5.7;;;;;;;28.99;49;937.068;;;;
2019/07/25 19:05:04;;;;;;;9.9;5.8;;;;;;;28.89;49.84668;936.9236;;;;
2019/07/25 19:08:19;;;;;;;9.4;6.5;;;;;;;28.93;49.54102;936.9643;;;;
2019/07/25 19:11:47;;;;;;;7.2;6;;;;;;;28.9;49.90723;937.0167;;;;
2019/07/25 19:15:09;;;;;;;9.2;6.3;;;;;;;28.64;52.03223;936.9123;;;;
2019/07/25 19:18:24;;;;;;;7.8;6.1;;;;;;;28.56;51.91504;936.9;;;;
2019/07/25 19:21:41;;;;;;;8.7;6.3;;;;;;;28.51;52.27832;936.9786;;;;
2019/07/25 19:24:58;;;;;;;9.5;6.6;;;;;;;28.4;52.89453;936.94;;;;
2019/07/25 19:28:18;;;;;;;13.3;6.8;;;;;;;28.17;52.97461;936.9387;;;;
2019/07/25 19:31:36;;;;;;;8.2;6.5;;;;;;;28.11;53.23047;936.9568;;;;
2019/07/25 19:34:51;;;;;;;10.2;6.5;;;;;;;28.12;53.27734;937.0303;;;;
2019/07/25 19:38:14;;;;;;;10.3;6.5;;;;;;;27.97;55.0791;937.0543;;;;
2019/07/25 19:41:34;;;;;;;9;6.7;;;;;;;27.58;55.62402;937.1313;;;;
2019/07/25 19:44:52;;;;;;;12;6.7;;;;;;;27.57;55.30176;937.1902;;;;
2019/07/25 19:48:10;;;;;;;9.4;7;;;;;;;27.5;55.81543;937.259;;;;
2019/07/25 19:51:26;;;;;;;13.3;7.3;;;;;;;27.43;55.61621;937.2792;;;;
2019/07/25 19:54:41;;;;;;;9.8;7.3;;;;;;;27.48;55.62305;937.2184;;;;
2019/07/25 19:58:02;;;;;;;12.4;6.7;;;;;;;27.47;55.27734;937.2209;;;;
2019/07/25 20:01:20;;;;;;;7.2;6.5;;;;;;;27.39;56.03906;937.2855;;;;
2019/07/25 20:04:40;;;;;;;10.9;7.1;;;;;;;27.21;56.56055;937.3414;;;;
2019/07/25 20:07:56;;;;;;;10.9;6.5;;;;;;;26.81;55.89648;937.2431;;;;